createdAt,value
2018-11-28T00:00:31.966Z,41.63
2018-11-28T00:03:02.398Z,42.60
2018-11-28T00:05:31.025Z,36.20
2018-11-28T00:07:59.311Z,38.02
2018-11-28T00:10:27.081Z,43.38
2018-11-28T00:12:55.516Z,44.10
2018-11-28T00:15:23.257Z,35.38
2018-11-28T00:17:51.119Z,49.10
2018-11-28T00:20:21.369Z,42.90
2018-11-28T00:22:49.388Z,42.40
2018-11-28T00:25:17.617Z,43.20
2018-11-28T00:27:45.503Z,45.17
2018-11-28T00:30:14.511Z,40.63
2018-11-28T00:32:42.617Z,35.75
2018-11-28T00:35:12.688Z,40.67
2018-11-28T00:37:40.754Z,39.58
2018-11-28T00:40:10.210Z,40.38
2018-11-28T00:42:38.796Z,42.98
2018-11-28T00:45:09.516Z,42.70
2018-11-28T00:47:37.322Z,40.92
2018-11-28T00:50:09.079Z,43.63
2018-11-28T00:52:37.292Z,37.90
2018-11-28T00:55:06.748Z,41.15
2018-11-28T00:57:34.468Z,43.75
2018-11-28T01:00:02.335Z,46.05
2018-11-28T01:02:29.957Z,40.78
2018-11-28T01:04:57.652Z,41.50
2018-11-28T01:07:25.365Z,45.65
2018-11-28T01:09:53.055Z,44.05
2018-11-28T01:12:21.189Z,43.85
2018-11-28T01:14:48.906Z,44.70
2018-11-28T01:17:16.699Z,36.77
2018-11-28T01:19:44.496Z,42.83
2018-11-28T01:22:12.184Z,44.85
2018-11-28T01:24:39.826Z,41.80
2018-11-28T01:27:07.590Z,49.80
2018-11-28T01:29:35.227Z,51.73
2018-11-28T01:32:04.226Z,42.17
2018-11-28T01:34:32.439Z,46.65
2018-11-28T01:37:00.242Z,47.95
2018-11-28T01:39:28.008Z,44.83
2018-11-28T01:41:55.599Z,47.30
2018-11-28T01:44:23.271Z,42.98
2018-11-28T01:46:50.961Z,44.10
2018-11-28T01:49:18.804Z,43.68
2018-11-28T01:51:46.387Z,44.30
2018-11-28T01:54:14.188Z,41.85
2018-11-28T01:56:41.861Z,42.20
2018-11-28T01:59:09.607Z,53.02
2018-11-28T02:01:38.534Z,42.70
2018-11-28T02:04:06.828Z,47.62
2018-11-28T02:06:34.620Z,43.92
2018-11-28T02:09:02.952Z,42.98
2018-11-28T02:11:30.607Z,41.68
2018-11-28T02:13:58.326Z,28.57
2018-11-28T02:16:27.164Z,41.02
2018-11-28T02:18:54.892Z,41.73
2018-11-28T02:21:22.647Z,38.80
2018-11-28T02:23:50.391Z,34.75
2018-11-28T02:26:17.991Z,41.10
2018-11-28T02:28:46.271Z,41.15
2018-11-28T02:31:14.488Z,42.43
2018-11-28T02:33:43.502Z,29.10
2018-11-28T02:36:11.745Z,43.38
2018-11-28T02:38:39.459Z,45.28
2018-11-28T02:41:07.880Z,37.70
2018-11-28T02:43:35.645Z,28.57
2018-11-28T02:46:14.716Z,44.38
2018-11-28T02:48:42.489Z,36.08
2018-11-28T02:51:10.480Z,43.68
2018-11-28T02:53:38.245Z,30.75
2018-11-28T02:56:06.052Z,40.25
2018-11-28T02:58:33.948Z,38.92
2018-11-28T03:01:02.367Z,36.85
2018-11-28T03:03:30.111Z,27.37
2018-11-28T03:05:58.050Z,37.80
2018-11-28T03:08:25.668Z,44.58
2018-11-28T03:10:53.440Z,29.63
2018-11-28T03:13:21.062Z,47.83
2018-11-28T03:15:48.870Z,33.40
2018-11-28T03:18:18.029Z,70.87
2018-11-28T03:20:45.785Z,47.67
2018-11-28T03:23:13.488Z,25.30
2018-11-28T03:25:41.218Z,29.40
2018-11-28T03:28:09.252Z,37.90
2018-11-28T03:30:36.805Z,25.05
2018-11-28T03:33:04.756Z,39.63
2018-11-28T03:35:32.351Z,42.23
2018-11-28T03:38:00.047Z,40.00
2018-11-28T03:42:57.261Z,39.92
2018-11-28T03:45:25.395Z,38.10
2018-11-28T03:47:53.035Z,32.05
2018-11-28T03:50:20.872Z,31.97
2018-11-28T03:52:48.723Z,48.17
2018-11-28T03:55:16.414Z,44.88
2018-11-28T03:57:45.463Z,38.90
2018-11-28T04:00:16.490Z,44.70
2018-11-28T04:02:44.116Z,41.05
2018-11-28T04:05:12.457Z,45.90
2018-11-28T04:07:40.341Z,43.55
2018-11-28T04:10:11.157Z,36.53
2018-11-28T04:12:39.639Z,42.10
2018-11-28T04:15:13.413Z,42.35
2018-11-28T04:17:41.056Z,38.70
2018-11-28T04:20:12.006Z,40.45
2018-11-28T04:22:40.224Z,39.63
2018-11-28T04:25:09.219Z,45.43
2018-11-28T04:27:36.907Z,36.33
2018-11-28T04:30:09.512Z,43.95
2018-11-28T04:32:37.906Z,44.03
2018-11-28T04:35:07.531Z,39.65
2018-11-28T04:37:35.099Z,40.30
2018-11-28T04:40:03.199Z,51.88
2018-11-28T04:42:30.965Z,41.20
2018-11-28T04:44:58.591Z,40.55
2018-11-28T04:47:26.241Z,44.23
2018-11-28T04:49:55.244Z,44.60
2018-11-28T04:52:23.626Z,40.40
2018-11-28T04:54:51.320Z,41.85
2018-11-28T04:57:19.023Z,30.68
2018-11-28T04:59:46.633Z,42.95
2018-11-28T05:02:14.293Z,39.73
2018-11-28T05:04:41.931Z,41.13
2018-11-28T05:07:25.808Z,45.55
2018-11-28T05:09:53.723Z,42.00
2018-11-28T05:12:21.768Z,45.25
2018-11-28T05:14:49.631Z,41.53
2018-11-28T05:17:17.953Z,41.20
2018-11-28T05:19:45.868Z,45.52
2018-11-28T05:22:13.764Z,40.17
2018-11-28T05:24:41.475Z,38.45
2018-11-28T05:27:09.530Z,49.20
2018-11-28T05:29:37.291Z,37.95
2018-11-28T05:32:06.158Z,40.40
2018-11-28T05:34:33.967Z,41.63
2018-11-28T05:37:01.628Z,37.83
2018-11-28T05:39:29.260Z,35.48
2018-11-28T05:41:57.456Z,34.18
2018-11-28T05:44:25.218Z,38.58
2018-11-28T05:46:53.500Z,31.75
2018-11-28T05:49:21.176Z,33.80
2018-11-28T05:51:49.493Z,34.90
2018-11-28T05:54:17.116Z,35.52
2018-11-28T05:56:44.738Z,26.45
2018-11-28T05:59:12.356Z,36.20
2018-11-28T06:01:40.612Z,34.75
2018-11-28T06:04:08.828Z,26.77
2018-11-28T06:06:36.490Z,33.80
2018-11-28T06:09:06.871Z,35.15
2018-11-28T06:11:34.641Z,33.75
2018-11-28T06:14:02.398Z,32.25
2018-11-28T06:16:30.401Z,31.73
2018-11-28T06:18:58.219Z,37.55
2018-11-28T06:21:26.044Z,27.32
2018-11-28T06:23:53.779Z,16.67
2018-11-28T06:26:21.930Z,35.63
2018-11-28T06:28:49.914Z,36.13
2018-11-28T06:31:18.180Z,38.67
2018-11-28T06:33:45.914Z,35.35
2018-11-28T06:36:13.619Z,36.03
2018-11-28T06:38:42.536Z,33.30
2018-11-28T06:41:10.565Z,32.70
2018-11-28T06:43:39.574Z,35.78
2018-11-28T06:46:07.225Z,36.13
2018-11-28T06:48:35.479Z,38.33
2018-11-28T06:51:03.179Z,36.75
2018-11-28T06:53:30.950Z,35.52
2018-11-28T06:55:58.803Z,37.80
2018-11-28T06:58:26.600Z,33.48
2018-11-28T07:00:54.980Z,36.68
2018-11-28T07:03:22.618Z,29.57
2018-11-28T07:05:51.095Z,32.85
2018-11-28T07:08:19.005Z,32.50
2018-11-28T07:10:48.795Z,35.75
2018-11-28T07:13:16.499Z,31.23
2018-11-28T07:15:44.157Z,26.15
2018-11-28T07:18:23.060Z,29.15
2018-11-28T07:20:51.581Z,28.27
2018-11-28T07:23:19.504Z,36.28
2018-11-28T07:25:47.284Z,31.12
2018-11-28T07:28:15.137Z,30.77
2018-11-28T07:30:42.756Z,34.27
2018-11-28T07:33:10.522Z,31.27
2018-11-28T07:35:42.483Z,35.68
2018-11-28T07:38:10.254Z,34.65
2018-11-28T07:40:40.001Z,37.70
2018-11-28T07:43:09.081Z,35.92
2018-11-28T07:45:38.327Z,25.82
2018-11-28T07:48:06.428Z,31.42
2018-11-28T07:50:34.081Z,32.98
2018-11-28T07:53:01.836Z,32.13
2018-11-28T07:55:30.162Z,27.82
2018-11-28T07:57:57.855Z,33.85
2018-11-28T08:00:25.497Z,34.48
2018-11-28T08:02:53.293Z,25.37
2018-11-28T08:05:21.094Z,27.48
2018-11-28T08:07:49.069Z,32.35
2018-11-28T08:10:21.179Z,28.95
2018-11-28T08:12:50.293Z,29.60
2018-11-28T08:15:18.021Z,21.10
2018-11-28T08:17:46.522Z,20.05
2018-11-28T08:20:14.863Z,26.25
2018-11-28T08:22:42.528Z,33.10
2018-11-28T08:25:13.583Z,30.40
2018-11-28T08:27:42.704Z,22.50
2018-11-28T08:30:20.538Z,29.15
2018-11-28T08:32:48.514Z,28.50
2018-11-28T08:35:16.338Z,30.65
2018-11-28T08:37:44.213Z,27.62
2018-11-28T08:40:13.311Z,31.52
2018-11-28T08:42:41.066Z,29.32
2018-11-28T08:45:11.944Z,24.52
2018-11-28T08:47:39.610Z,25.85
2018-11-28T08:50:10.991Z,29.20
2018-11-28T08:52:38.679Z,29.92
2018-11-28T08:55:07.870Z,24.50
2018-11-28T08:57:35.609Z,25.40
2018-11-28T09:00:05.657Z,25.62
2018-11-28T09:02:33.601Z,25.52
2018-11-28T09:05:01.299Z,29.95
2018-11-28T09:07:29.550Z,22.50
2018-11-28T09:09:57.516Z,32.40
2018-11-28T09:12:25.509Z,29.52
2018-11-28T09:14:53.220Z,26.23
2018-11-28T09:17:20.908Z,28.83
2018-11-28T09:19:48.541Z,29.07
2018-11-28T09:22:16.980Z,27.27
2018-11-28T09:24:44.955Z,26.07
2018-11-28T09:27:12.567Z,27.02
2018-11-28T09:29:40.261Z,25.05
2018-11-28T09:32:08.014Z,24.87
2018-11-28T09:34:35.686Z,20.00
2018-11-28T09:37:03.365Z,25.23
2018-11-28T09:39:31.805Z,27.25
2018-11-28T09:41:59.450Z,28.80
2018-11-28T09:44:27.577Z,25.60
2018-11-28T09:46:55.197Z,29.82
2018-11-28T09:49:22.886Z,22.07
2018-11-28T09:51:50.684Z,27.52
2018-11-28T09:54:18.328Z,20.17
2018-11-28T09:56:46.281Z,25.68
2018-11-28T09:59:14.032Z,12.78
2018-11-28T10:01:41.821Z,22.93
2018-11-28T10:04:09.520Z,21.60
2018-11-28T10:06:37.193Z,20.23
2018-11-28T10:09:06.987Z,21.55
2018-11-28T10:11:34.659Z,21.80
2018-11-28T10:14:02.526Z,25.00
2018-11-28T10:16:30.210Z,25.23
2018-11-28T10:18:57.899Z,20.70
2018-11-28T10:21:25.720Z,31.37
2018-11-28T10:23:53.429Z,20.72
2018-11-28T10:26:21.429Z,21.55
2018-11-28T10:28:49.148Z,20.15
2018-11-28T10:31:17.045Z,18.77
2018-11-28T10:33:44.841Z,25.65
2018-11-28T10:36:12.592Z,26.37
2018-11-28T10:38:41.150Z,16.20
2018-11-28T10:41:08.917Z,25.77
2018-11-28T10:43:36.603Z,19.07
2018-11-28T10:46:04.540Z,26.45
2018-11-28T10:48:32.434Z,20.68
2018-11-28T10:51:00.216Z,23.15
2018-11-28T10:53:27.922Z,21.50
2018-11-28T10:55:55.940Z,18.92
2018-11-28T10:58:23.688Z,17.50
2018-11-28T11:00:56.941Z,26.35
2018-11-28T11:03:30.440Z,20.72
2018-11-28T11:06:03.125Z,16.15
2018-11-28T11:08:36.556Z,21.93
2018-11-28T11:11:09.997Z,20.32
2018-11-28T11:13:42.011Z,14.65
2018-11-28T11:16:10.881Z,21.80
2018-11-28T11:18:39.187Z,18.90
2018-11-28T11:21:06.867Z,21.55
2018-11-28T11:23:34.997Z,20.05
2018-11-28T11:26:02.807Z,19.65
2018-11-28T11:28:30.460Z,21.15
2018-11-28T11:30:58.215Z,23.35
2018-11-28T11:33:25.878Z,19.37
2018-11-28T11:35:53.589Z,22.82
2018-11-28T11:38:22.745Z,24.32
2018-11-28T11:40:50.536Z,30.40
2018-11-28T11:43:18.472Z,25.52
2018-11-28T11:45:47.064Z,15.03
2018-11-28T11:48:15.001Z,19.45
2018-11-28T11:50:42.763Z,19.15
2018-11-28T11:53:11.309Z,23.27
2018-11-28T11:55:39.079Z,27.50
2018-11-28T11:58:07.160Z,26.73
2018-11-28T12:00:36.273Z,22.25
2018-11-28T12:03:08.831Z,21.62
2018-11-28T12:05:36.966Z,13.35
2018-11-28T12:08:05.762Z,18.80
2018-11-28T12:10:33.412Z,21.77
2018-11-28T12:13:01.254Z,22.00
2018-11-28T12:15:29.240Z,23.40
2018-11-28T12:17:57.177Z,16.10
2018-11-28T12:20:33.731Z,22.55
2018-11-28T12:23:01.395Z,27.20
2018-11-28T12:25:29.055Z,26.42
2018-11-28T12:27:57.927Z,29.63
2018-11-28T12:30:25.627Z,28.85
2018-11-28T12:32:53.458Z,28.65
2018-11-28T12:35:21.377Z,28.90
2018-11-28T12:37:49.412Z,27.10
2018-11-28T12:40:17.276Z,29.30
2018-11-28T12:42:48.052Z,33.00
2018-11-28T12:45:16.905Z,25.02
2018-11-28T12:47:45.512Z,33.60
2018-11-28T12:50:22.472Z,31.57
2018-11-28T12:52:51.164Z,27.85
2018-11-28T12:55:19.895Z,31.82
2018-11-28T12:57:47.818Z,22.75
2018-11-28T13:00:17.775Z,26.80
2018-11-28T13:02:52.648Z,28.25
2018-11-28T13:05:21.943Z,29.25
2018-11-28T13:07:49.740Z,30.40
2018-11-28T13:10:22.875Z,29.07
2018-11-28T13:12:50.968Z,23.98
2018-11-28T13:15:19.655Z,29.50
2018-11-28T13:17:47.416Z,19.75
2018-11-28T13:20:17.196Z,24.12
2018-11-28T13:22:45.865Z,27.15
2018-11-28T13:25:14.773Z,25.92
2018-11-28T13:27:42.789Z,30.12
2018-11-28T13:30:13.463Z,29.60
2018-11-28T13:32:41.871Z,27.87
2018-11-28T13:35:10.424Z,29.48
2018-11-28T13:37:38.178Z,23.25
2018-11-28T13:40:10.238Z,28.77
2018-11-28T13:42:37.978Z,28.50
2018-11-28T13:45:09.921Z,31.17
2018-11-28T13:47:37.785Z,28.62
2018-11-28T13:50:07.347Z,22.60
2018-11-28T13:52:35.188Z,27.45
2018-11-28T13:55:37.334Z,25.52
2018-11-28T13:57:31.591Z,29.98
2018-11-28T13:59:59.451Z,24.95
2018-11-28T14:02:27.307Z,24.87
2018-11-28T14:04:55.016Z,24.40
2018-11-28T14:07:23.480Z,23.40
2018-11-28T14:09:51.541Z,25.85
2018-11-28T14:12:19.329Z,25.05
2018-11-28T14:14:47.332Z,25.65
2018-11-28T14:17:15.127Z,25.30
2018-11-28T14:19:44.944Z,28.42
2018-11-28T14:22:12.839Z,29.92
2018-11-28T14:24:40.618Z,26.35
2018-11-28T14:27:08.271Z,28.47
2018-11-28T14:29:35.918Z,23.25
2018-11-28T14:32:03.686Z,24.95
2018-11-28T14:34:31.655Z,21.80
2018-11-28T14:37:00.067Z,29.70
2018-11-28T14:39:27.781Z,27.52
2018-11-28T14:41:55.447Z,24.18
2018-11-28T14:44:23.216Z,28.70
2018-11-28T14:46:51.012Z,26.17
2018-11-28T14:49:18.868Z,27.52
2018-11-28T14:51:46.630Z,24.87
2018-11-28T14:54:14.752Z,32.65
2018-11-28T14:56:42.472Z,29.77
2018-11-28T14:59:10.424Z,26.10
2018-11-28T15:01:38.341Z,26.45
2018-11-28T15:04:06.551Z,23.18
2018-11-28T15:06:56.954Z,26.97
2018-11-28T15:09:32.002Z,21.68
2018-11-28T15:11:59.754Z,27.77
2018-11-28T15:14:28.016Z,31.60
2018-11-28T15:16:55.733Z,21.87
2018-11-28T15:19:23.484Z,22.65
2018-11-28T15:21:51.170Z,26.05
2018-11-28T15:24:18.917Z,27.02
2018-11-28T15:26:46.797Z,26.02
2018-11-28T15:29:14.549Z,21.17
2018-11-28T15:31:42.332Z,22.20
2018-11-28T15:34:10.039Z,28.32
2018-11-28T15:36:37.987Z,22.98
2018-11-28T15:39:08.092Z,27.42
2018-11-28T15:41:36.460Z,20.35
2018-11-28T15:44:04.749Z,19.85
2018-11-28T15:46:33.884Z,23.10
2018-11-28T15:49:02.052Z,22.62
2018-11-28T15:51:29.854Z,23.42
2018-11-28T15:53:57.752Z,18.87
2018-11-28T15:56:25.404Z,23.22
2018-11-28T15:58:53.037Z,21.30
2018-11-28T16:01:20.729Z,22.80
2018-11-28T16:03:48.442Z,19.27
2018-11-28T16:06:16.079Z,20.23
2018-11-28T16:08:43.813Z,17.52
2018-11-28T16:11:14.052Z,20.75
2018-11-28T16:13:41.815Z,21.75
2018-11-28T16:16:09.589Z,22.73
2018-11-28T16:18:37.355Z,25.70
2018-11-28T16:21:05.663Z,18.12
2018-11-28T16:23:34.101Z,18.52
2018-11-28T16:26:01.817Z,21.17
2018-11-28T16:28:29.682Z,20.95
2018-11-28T16:30:57.413Z,17.27
2018-11-28T16:33:25.211Z,16.85
2018-11-28T16:35:53.715Z,16.65
2018-11-28T16:38:21.680Z,18.00
2018-11-28T16:40:54.529Z,18.00
2018-11-28T16:43:22.570Z,15.95
2018-11-28T16:45:50.367Z,15.95
2018-11-28T16:48:17.999Z,18.20
2018-11-28T16:50:46.004Z,17.95
2018-11-28T16:53:13.662Z,16.62
2018-11-28T16:55:42.652Z,15.48
2018-11-28T16:58:10.477Z,14.47
2018-11-28T17:00:40.502Z,19.15
2018-11-28T17:03:08.376Z,19.67
2018-11-28T17:05:36.668Z,16.15
2018-11-28T17:08:05.590Z,24.25
2018-11-28T17:13:07.802Z,20.00
2018-11-28T17:15:36.920Z,16.42
2018-11-28T17:18:05.483Z,15.80
2018-11-28T17:20:33.387Z,15.50
2018-11-28T17:23:01.198Z,15.63
2018-11-28T17:25:31.370Z,13.08
2018-11-28T17:27:59.691Z,17.50
2018-11-28T17:30:28.765Z,16.90
2018-11-28T17:32:56.940Z,17.92
2018-11-28T17:35:24.699Z,13.30
2018-11-28T17:37:52.874Z,17.20
2018-11-28T17:40:24.829Z,16.85
2018-11-28T17:42:53.659Z,17.62
2018-11-28T17:45:22.113Z,21.42
2018-11-28T17:47:50.486Z,17.85
2018-11-28T17:50:19.344Z,16.25
2018-11-28T17:52:52.912Z,16.37
2018-11-28T17:55:20.702Z,18.87
2018-11-28T17:57:48.846Z,18.17
2018-11-28T18:00:19.124Z,17.23
2018-11-28T18:02:47.135Z,17.15
2018-11-28T18:05:15.743Z,17.75
2018-11-28T18:07:43.728Z,20.25
2018-11-28T18:10:19.458Z,19.55
2018-11-28T18:12:58.870Z,18.02
2018-11-28T18:15:27.039Z,18.65
2018-11-28T18:17:55.927Z,18.85
2018-11-28T18:20:23.899Z,15.13
2018-11-28T18:22:51.707Z,16.45
2018-11-28T18:25:20.567Z,11.30
2018-11-28T18:27:48.403Z,16.05
2018-11-28T18:30:17.434Z,17.23
2018-11-28T18:32:45.109Z,16.25
2018-11-28T18:35:12.891Z,17.60
2018-11-28T18:37:41.941Z,18.85
2018-11-28T18:40:11.603Z,17.75
2018-11-28T18:42:40.053Z,22.00
2018-11-28T18:45:11.651Z,18.85
2018-11-28T18:47:39.437Z,19.15
2018-11-28T18:50:08.873Z,12.93
2018-11-28T18:52:36.803Z,17.92
2018-11-28T18:55:06.982Z,18.62
2018-11-28T18:57:34.741Z,20.27
2018-11-28T19:00:03.636Z,14.07
2018-11-28T19:02:31.576Z,14.23
2018-11-28T19:04:59.572Z,18.12
2018-11-28T19:07:27.595Z,18.35
2018-11-28T19:09:55.856Z,16.37
2018-11-28T19:12:23.720Z,17.65
2018-11-28T19:14:51.536Z,15.78
2018-11-28T19:17:20.381Z,16.65
2018-11-28T19:19:48.250Z,24.10
2018-11-28T19:22:16.854Z,19.20
2018-11-28T19:24:44.905Z,17.02
2018-11-28T19:27:12.713Z,20.17
2018-11-28T19:29:40.694Z,18.12
2018-11-28T19:32:08.410Z,22.20
2018-11-28T19:34:36.212Z,18.50
2018-11-28T19:37:04.235Z,14.50
2018-11-28T19:39:32.443Z,23.18
2018-11-28T19:42:00.678Z,17.67
2018-11-28T19:44:34.752Z,20.25
2018-11-28T19:47:02.674Z,15.38
2018-11-28T19:49:30.840Z,22.62
2018-11-28T19:51:59.765Z,15.60
2018-11-28T19:54:28.240Z,22.93
2018-11-28T19:56:56.020Z,16.95
2018-11-28T19:59:23.956Z,17.10
2018-11-28T20:01:51.744Z,17.35
2018-11-28T20:04:19.502Z,21.23
2018-11-28T20:06:47.429Z,22.40
2018-11-28T20:09:20.619Z,17.80
2018-11-28T20:11:48.633Z,19.20
2018-11-28T20:14:16.878Z,28.05
2018-11-28T20:16:44.645Z,15.93
2018-11-28T20:19:17.526Z,17.40
2018-11-28T20:21:41.193Z,15.83
2018-11-28T20:24:09.236Z,23.83
2018-11-28T20:26:37.794Z,19.48
2018-11-28T20:29:06.655Z,21.40
2018-11-28T20:31:34.967Z,12.20
2018-11-28T20:34:02.754Z,26.48
2018-11-28T20:36:30.529Z,20.15
2018-11-28T20:38:59.185Z,20.15
2018-11-28T20:41:27.412Z,19.15
2018-11-28T20:43:55.294Z,18.98
2018-11-28T20:46:23.309Z,22.15
2018-11-28T20:48:51.894Z,16.23
2018-11-28T20:51:19.649Z,14.00
2018-11-28T20:53:47.850Z,23.40
2018-11-28T20:56:15.848Z,20.20
2018-11-28T20:58:43.688Z,23.30
2018-11-28T21:01:11.822Z,17.35
2018-11-28T21:03:40.455Z,21.68
2018-11-28T21:06:08.463Z,13.65
2018-11-28T21:08:36.311Z,15.45
2018-11-28T21:11:04.949Z,12.70
2018-11-28T21:13:32.633Z,20.02
2018-11-28T21:16:06.960Z,19.35
2018-11-28T21:18:35.039Z,24.55
2018-11-28T21:21:03.591Z,19.32
2018-11-28T21:23:31.558Z,26.30
2018-11-28T21:25:59.651Z,25.05
2018-11-28T21:28:27.677Z,26.48
2018-11-28T21:30:55.571Z,16.87
2018-11-28T21:33:23.597Z,16.73
2018-11-28T21:35:52.218Z,22.87
2018-11-28T21:38:20.272Z,26.33
2018-11-28T21:40:48.306Z,19.52
2018-11-28T21:43:16.567Z,22.50
2018-11-28T21:45:44.438Z,24.82
2018-11-28T21:48:12.917Z,16.40
2018-11-28T21:50:40.981Z,24.63
2018-11-28T21:53:09.226Z,26.33
2018-11-28T21:55:37.447Z,22.58
2018-11-28T21:58:05.535Z,13.75
2018-11-28T22:00:34.968Z,20.40
2018-11-28T22:03:02.743Z,24.32
2018-11-28T22:05:30.392Z,15.28
2018-11-28T22:07:58.272Z,20.43
2018-11-28T22:10:26.606Z,18.70
2018-11-28T22:12:55.214Z,24.95
2018-11-28T22:15:23.022Z,25.17
2018-11-28T22:17:54.860Z,22.02
2018-11-28T22:20:23.808Z,19.42
2018-11-28T22:22:51.988Z,14.53
2018-11-28T22:25:23.867Z,12.98
2018-11-28T22:27:52.341Z,15.85
2018-11-28T22:30:27.889Z,19.87
2018-11-28T22:32:56.097Z,10.63
2018-11-28T22:35:23.924Z,18.75
2018-11-28T22:37:51.790Z,15.45
2018-11-28T22:40:21.907Z,16.07
2018-11-28T22:42:56.469Z,16.23
2018-11-28T22:45:26.632Z,19.27
2018-11-28T22:47:54.411Z,15.53
2018-11-28T22:50:22.459Z,18.92
2018-11-28T22:52:51.074Z,22.17
2018-11-28T22:55:18.971Z,19.32
2018-11-28T22:57:46.679Z,23.60
2018-11-28T23:00:22.894Z,21.27
2018-11-28T23:02:52.906Z,17.27
2018-11-28T23:05:21.839Z,18.77
2018-11-28T23:07:49.650Z,15.65
2018-11-28T23:10:17.978Z,22.65
2018-11-28T23:12:46.095Z,15.03
2018-11-28T23:15:14.248Z,23.85
2018-11-28T23:17:42.911Z,21.15
2018-11-28T23:20:10.880Z,16.48
2018-11-28T23:22:39.157Z,23.25
2018-11-28T23:25:10.163Z,16.65
2018-11-28T23:27:38.121Z,20.88
2018-11-28T23:30:11.043Z,23.87
2018-11-28T23:32:38.962Z,12.75
2018-11-28T23:35:08.338Z,21.30
2018-11-28T23:37:36.426Z,18.32
2018-11-28T23:40:09.531Z,13.90
2018-11-28T23:42:38.091Z,22.25
2018-11-28T23:45:08.043Z,17.42
2018-11-28T23:47:36.389Z,12.55
2018-11-28T23:50:07.333Z,20.10
2018-11-28T23:55:21.433Z,19.60
2018-11-28T23:57:50.007Z,16.02
